Time;durP1;ratioP1;P1;durP2;ratioP2;P2;SDS_P1;SDS_P2;PMS_P1;PMS_P2;Temp;Humidity;BMP_temperature;BMP_pressure;BME280_temperature;BME280_humidity;BME280_pressure;Samples;Min_cycle;Max_cycle;Signal;HPM_P1;HPM_P2
2022/10/06 00:01:53;;;;;;;;;;;14.70;81.00;;;;;;5050844;28;19908;-86
2022/10/06 00:04:19;;;;;;;;;;;14.80;80.10;;;;;;5058812;28;19923;-86
2022/10/06 00:06:44;;;;;;;;;;;14.80;79.70;;;;;;5046961;28;19921;-86
2022/10/06 00:09:10;;;;;;;;;;;14.80;79.10;;;;;;5032004;28;19909;-86
2022/10/06 00:11:36;;;;;;;;;;;14.80;79.00;;;;;;5031259;28;20012;-86
2022/10/06 00:14:02;;;;;;;;;;;14.70;79.30;;;;;;5033179;28;19917;-86
2022/10/06 00:16:27;;;;;;;;;;;14.70;79.60;;;;;;5034203;28;19909;-86
2022/10/06 00:18:53;;;;;;;;;;;14.60;78.70;;;;;;5031505;28;20005;-86
2022/10/06 00:21:18;;;;;;;;;;;14.70;79.30;;;;;;5031777;28;20019;-86
2022/10/06 00:23:44;;;;;;;;;;;14.60;79.30;;;;;;5030750;28;19913;-86
2022/10/06 00:26:15;;;;;;;;;;;14.60;79.00;;;;;;5031032;28;19913;-86
2022/10/06 00:28:46;;;;;;;;;;;14.70;78.60;;;;;;5030162;28;20299;-86
2022/10/06 00:31:12;;;;;;;;;;;14.60;79.00;;;;;;5031325;28;19971;-86
2022/10/06 00:33:37;;;;;;;;;;;14.70;78.50;;;;;;5032095;28;19928;-85
2022/10/06 00:36:03;;;;;;;;;;;14.60;78.40;;;;;;5063847;28;19987;-86
2022/10/06 00:38:28;;;;;;;;;;;14.60;78.60;;;;;;5032509;28;19917;-86
2022/10/06 00:40:54;;;;;;;;;;;14.60;78.10;;;;;;5038834;28;19932;-85
2022/10/06 00:43:38;;;;;;;;;;;14.60;78.50;;;;;;5052203;28;19928;-86
2022/10/06 00:46:04;;;;;;;;;;;14.60;78.30;;;;;;5044162;28;19917;-86
2022/10/06 00:48:29;;;;;;;;;;;14.60;78.10;;;;;;5057542;28;20342;-86
2022/10/06 00:50:56;;;;;;;;;;;14.60;78.10;;;;;;5045864;28;20007;-86
2022/10/06 00:53:23;;;;;;;;;;;14.60;78.10;;;;;;5047542;28;19966;-86
2022/10/06 00:55:48;;;;;;;;;;;14.50;78.00;;;;;;5044274;28;20002;-85
2022/10/06 00:58:15;;;;;;;;;;;14.40;78.90;;;;;;5031189;28;19959;-85
2022/10/06 01:00:41;;;;;;;;;;;14.40;78.40;;;;;;5031155;28;20381;-85
2022/10/06 01:03:10;;;;;;;;;;;14.40;78.70;;;;;;5053136;28;20059;-87
2022/10/06 01:05:40;;;;;;;;;;;14.30;78.50;;;;;;5044138;28;19916;-85
2022/10/06 01:08:06;;;;;;;;;;;14.20;78.80;;;;;;5055180;28;20444;-85
2022/10/06 01:10:31;;;;;;;;;;;14.10;79.00;;;;;;5052431;28;20016;-87
2022/10/06 01:12:57;;;;;;;;;;;14.10;79.10;;;;;;5051280;28;19998;-86
2022/10/06 01:15:23;;;;;;;;;;;14.20;78.70;;;;;;5047838;28;19931;-86
2022/10/06 01:18:16;;;;;;;;;;;14.20;78.40;;;;;;5051604;28;19923;-86
2022/10/06 01:20:45;;;;;;;;;;;14.10;78.60;;;;;;5062730;28;19912;-86
2022/10/06 01:23:11;;;;;;;;;;;14.10;79.00;;;;;;5054018;28;19913;-86
2022/10/06 01:25:37;;;;;;;;;;;14.10;78.80;;;;;;5062154;28;19922;-86
2022/10/06 01:28:03;;;;;;;;;;;14.00;78.90;;;;;;5060940;28;19951;-85
2022/10/06 01:30:31;;;;;;;;;;;14.00;79.10;;;;;;5054087;28;19921;-86
2022/10/06 01:32:56;;;;;;;;;;;14.00;79.30;;;;;;5055680;28;19923;-86
2022/10/06 01:35:22;;;;;;;;;;;13.90;79.40;;;;;;5066402;28;19908;-85
2022/10/06 01:37:47;;;;;;;;;;;14.00;79.10;;;;;;5056864;28;20262;-86
2022/10/06 01:40:13;;;;;;;;;;;13.90;79.50;;;;;;5058101;28;19912;-85
2022/10/06 01:42:38;;;;;;;;;;;13.90;79.50;;;;;;5063993;28;19963;-85
2022/10/06 01:45:04;;;;;;;;;;;14.00;79.40;;;;;;5068272;28;19999;-85
2022/10/06 01:47:29;;;;;;;;;;;13.80;80.10;;;;;;5065140;28;19916;-86
2022/10/06 01:49:55;;;;;;;;;;;13.90;80.20;;;;;;5056410;28;19919;-86
2022/10/06 01:52:20;;;;;;;;;;;13.90;80.40;;;;;;5063871;28;19919;-85
2022/10/06 01:54:46;;;;;;;;;;;13.90;80.10;;;;;;5071458;28;19913;-86
2022/10/06 01:57:11;;;;;;;;;;;13.90;80.40;;;;;;5064750;28;19955;-85
2022/10/06 01:59:37;;;;;;;;;;;13.90;80.70;;;;;;5064061;28;19935;-86
2022/10/06 02:02:03;;;;;;;;;;;13.80;80.90;;;;;;5050515;28;19913;-86
2022/10/06 02:04:28;;;;;;;;;;;13.80;80.70;;;;;;5062136;28;20016;-86
2022/10/06 02:06:54;;;;;;;;;;;13.80;80.30;;;;;;5060858;28;19913;-86
2022/10/06 02:09:22;;;;;;;;;;;13.80;80.50;;;;;;5041401;28;19920;-86
2022/10/06 02:11:48;;;;;;;;;;;13.70;80.30;;;;;;5056084;28;19917;-86
2022/10/06 02:14:16;;;;;;;;;;;13.70;80.60;;;;;;5054094;28;20271;-85
2022/10/06 02:16:42;;;;;;;;;;;13.70;80.60;;;;;;5052831;28;19932;-86
2022/10/06 02:19:07;;;;;;;;;;;13.80;80.50;;;;;;5059969;28;20106;-86
2022/10/06 02:21:34;;;;;;;;;;;13.70;80.50;;;;;;5059631;28;20306;-86
2022/10/06 02:23:59;;;;;;;;;;;13.70;80.50;;;;;;5055765;28;19912;-86
2022/10/06 02:26:24;;;;;;;;;;;13.70;80.10;;;;;;5056275;28;19979;-85
2022/10/06 02:28:50;;;;;;;;;;;13.70;79.70;;;;;;5050475;28;19917;-86
2022/10/06 02:31:16;;;;;;;;;;;13.60;79.90;;;;;;5058930;28;19909;-85
2022/10/06 02:33:41;;;;;;;;;;;13.60;80.00;;;;;;5062171;28;19943;-86
2022/10/06 02:36:07;;;;;;;;;;;13.70;79.70;;;;;;5054586;28;19923;-86
2022/10/06 02:38:33;;;;;;;;;;;13.60;80.10;;;;;;5046637;28;19913;-86
2022/10/06 02:40:59;;;;;;;;;;;13.60;79.80;;;;;;5052831;28;19919;-86
2022/10/06 02:43:27;;;;;;;;;;;13.60;79.70;;;;;;5055464;28;19984;-85
2022/10/06 02:45:54;;;;;;;;;;;13.60;80.20;;;;;;5075401;28;19924;-85
2022/10/06 02:48:20;;;;;;;;;;;13.60;80.10;;;;;;5051722;28;19999;-85
2022/10/06 02:50:51;;;;;;;;;;;13.60;80.10;;;;;;5065860;28;19944;-85
2022/10/06 02:53:17;;;;;;;;;;;13.60;79.90;;;;;;5058906;28;19920;-86
2022/10/06 02:55:43;;;;;;;;;;;13.60;80.20;;;;;;5043285;28;19996;-85
2022/10/06 02:58:10;;;;;;;;;;;13.60;80.00;;;;;;5056847;28;20381;-85
2022/10/06 03:00:35;;;;;;;;;;;13.50;79.90;;;;;;5048799;28;19909;-86
2022/10/06 03:03:00;;;;;;;;;;;13.50;80.00;;;;;;5055427;28;20381;-86
2022/10/06 03:05:26;;;;;;;;;;;13.50;79.80;;;;;;5047766;28;20326;-86
2022/10/06 03:07:51;;;;;;;;;;;13.60;79.60;;;;;;5052459;28;20332;-85
2022/10/06 03:10:17;;;;;;;;;;;13.60;79.40;;;;;;5062130;28;20383;-86
2022/10/06 03:12:42;;;;;;;;;;;13.60;79.30;;;;;;5056654;28;20380;-86
2022/10/06 03:15:08;;;;;;;;;;;13.60;78.90;;;;;;5047002;28;19913;-86
2022/10/06 03:17:33;;;;;;;;;;;13.60;79.10;;;;;;5063520;28;19908;-85
2022/10/06 03:19:59;;;;;;;;;;;13.60;79.20;;;;;;5061124;28;20259;-85
2022/10/06 03:22:24;;;;;;;;;;;13.60;79.00;;;;;;5064556;28;19917;-85
2022/10/06 03:24:49;;;;;;;;;;;13.60;78.80;;;;;;5054705;28;19930;-86
2022/10/06 03:27:15;;;;;;;;;;;13.60;78.90;;;;;;5063825;28;19913;-86
2022/10/06 03:29:40;;;;;;;;;;;13.60;79.20;;;;;;5049357;28;19916;-86
2022/10/06 03:32:06;;;;;;;;;;;13.60;79.20;;;;;;5059216;28;19917;-85
2022/10/06 03:34:31;;;;;;;;;;;13.60;79.30;;;;;;5049415;28;19912;-86
2022/10/06 03:36:57;;;;;;;;;;;13.60;79.10;;;;;;5043951;28;19917;-86
2022/10/06 03:39:22;;;;;;;;;;;13.50;79.30;;;;;;5055324;28;19929;-85
2022/10/06 03:41:47;;;;;;;;;;;13.50;79.40;;;;;;5059531;28;19912;-85
2022/10/06 03:44:13;;;;;;;;;;;13.50;79.50;;;;;;5058698;28;19917;-86
2022/10/06 03:46:38;;;;;;;;;;;13.50;79.70;;;;;;5064597;28;19959;-85
2022/10/06 03:49:04;;;;;;;;;;;13.40;79.80;;;;;;5057080;28;19912;-86
2022/10/06 03:51:31;;;;;;;;;;;13.40;80.20;;;;;;5036792;28;19913;-86
2022/10/06 03:53:56;;;;;;;;;;;13.40;80.20;;;;;;5038301;28;19920;-86
2022/10/06 03:56:27;;;;;;;;;;;13.30;80.40;;;;;;5053166;28;19913;-85
2022/10/06 03:58:54;;;;;;;;;;;13.30;80.50;;;;;;5043794;28;19921;-85
2022/10/06 04:01:23;;;;;;;;;;;13.30;80.80;;;;;;5054930;28;19920;-85
2022/10/06 04:03:49;;;;;;;;;;;13.30;80.60;;;;;;5042641;28;19917;-85
2022/10/06 04:06:19;;;;;;;;;;;13.20;80.80;;;;;;5049960;28;20279;-85
2022/10/06 04:08:45;;;;;;;;;;;13.20;80.90;;;;;;5054179;28;19999;-85
2022/10/06 04:11:22;;;;;;;;;;;13.20;80.60;;;;;;5038278;28;20012;-86
2022/10/06 04:13:50;;;;;;;;;;;13.30;80.60;;;;;;5052606;28;19916;-85
2022/10/06 04:16:17;;;;;;;;;;;13.30;80.30;;;;;;5056416;28;19920;-86
2022/10/06 04:18:44;;;;;;;;;;;13.20;80.60;;;;;;5059495;28;19913;-86
2022/10/06 04:21:09;;;;;;;;;;;13.10;80.80;;;;;;5056630;28;19913;-85
2022/10/06 04:23:35;;;;;;;;;;;13.10;81.00;;;;;;5053664;28;19931;-86
2022/10/06 04:26:02;;;;;;;;;;;13.10;81.40;;;;;;5056626;28;19938;-85
2022/10/06 04:28:28;;;;;;;;;;;13.10;80.90;;;;;;5051159;28;19919;-85
2022/10/06 04:30:55;;;;;;;;;;;13.00;80.80;;;;;;5060536;28;19912;-85
2022/10/06 04:33:21;;;;;;;;;;;13.00;81.10;;;;;;5052878;28;19975;-85
2022/10/06 04:35:46;;;;;;;;;;;12.90;81.30;;;;;;5063313;28;19913;-85
2022/10/06 04:38:13;;;;;;;;;;;12.90;81.60;;;;;;5066024;28;19909;-85
2022/10/06 04:40:39;;;;;;;;;;;12.80;81.50;;;;;;5043966;28;20390;-85
2022/10/06 04:43:04;;;;;;;;;;;12.80;81.80;;;;;;5062634;28;19916;-85
2022/10/06 04:45:32;;;;;;;;;;;12.90;81.60;;;;;;5101720;22;20516;-82
2022/10/06 04:47:58;;;;;;;;;;;12.80;81.70;;;;;;5065330;28;20369;-82
2022/10/06 04:50:26;;;;;;;;;;;12.80;81.60;;;;;;5068454;28;19923;-82
2022/10/06 04:52:55;;;;;;;;;;;12.80;81.50;;;;;;5061404;28;19979;-82
2022/10/06 04:55:21;;;;;;;;;;;12.80;81.80;;;;;;5050776;28;19913;-82
2022/10/06 04:58:04;;;;;;;;;;;12.80;82.00;;;;;;5051259;28;20434;-82
2022/10/06 05:00:30;;;;;;;;;;;12.80;81.70;;;;;;5048298;28;19927;-82
2022/10/06 05:02:56;;;;;;;;;;;12.60;81.70;;;;;;5043553;28;19976;-82
2022/10/06 05:05:24;;;;;;;;;;;12.60;82.10;;;;;;5041303;28;19932;-82
2022/10/06 05:07:51;;;;;;;;;;;12.60;81.90;;;;;;5043493;28;20004;-82
2022/10/06 05:10:26;;;;;;;;;;;12.60;82.30;;;;;;5048451;28;19971;-81
2022/10/06 05:12:59;;;;;;;;;;;12.60;82.50;;;;;;5041960;28;19940;-82
2022/10/06 05:15:28;;;;;;;;;;;12.60;82.20;;;;;;5049697;28;20004;-82
2022/10/06 05:17:56;;;;;;;;;;;12.60;81.80;;;;;;5041759;28;19920;-82
2022/10/06 05:20:24;;;;;;;;;;;12.60;82.10;;;;;;5042792;28;20000;-82
2022/10/06 05:22:49;;;;;;;;;;;12.50;82.10;;;;;;5052978;28;20378;-82
2022/10/06 05:25:15;;;;;;;;;;;12.50;82.30;;;;;;5053773;28;19927;-82
2022/10/06 05:27:43;;;;;;;;;;;12.50;82.30;;;;;;5045527;28;19959;-82
2022/10/06 05:30:11;;;;;;;;;;;12.50;82.20;;;;;;5046646;28;19909;-82
2022/10/06 05:32:37;;;;;;;;;;;12.50;82.40;;;;;;5048256;28;19913;-82
2022/10/06 05:35:03;;;;;;;;;;;12.50;82.10;;;;;;5053649;28;19919;-81
2022/10/06 05:37:28;;;;;;;;;;;12.50;82.30;;;;;;5046564;28;19919;-81
2022/10/06 05:39:54;;;;;;;;;;;12.50;82.60;;;;;;5057842;28;19913;-82
2022/10/06 05:42:19;;;;;;;;;;;12.40;82.50;;;;;;5055701;28;19909;-82
2022/10/06 05:44:49;;;;;;;;;;;12.50;82.00;;;;;;5044717;28;19913;-82
2022/10/06 05:47:15;;;;;;;;;;;12.30;82.30;;;;;;5037528;28;20180;-82
2022/10/06 05:49:43;;;;;;;;;;;12.30;82.50;;;;;;5039633;28;19909;-82
2022/10/06 05:52:08;;;;;;;;;;;12.30;82.30;;;;;;5043387;28;19913;-82
2022/10/06 05:54:34;;;;;;;;;;;12.30;82.40;;;;;;5045626;28;19924;-82
2022/10/06 05:56:59;;;;;;;;;;;12.20;82.90;;;;;;5042622;28;19912;-82
2022/10/06 05:59:25;;;;;;;;;;;12.20;83.10;;;;;;5046251;28;19909;-82
2022/10/06 06:01:51;;;;;;;;;;;12.10;83.30;;;;;;5042377;28;19918;-82
2022/10/06 06:04:16;;;;;;;;;;;12.20;83.30;;;;;;5048622;28;19935;-82
2022/10/06 06:06:42;;;;;;;;;;;12.10;83.50;;;;;;5044043;28;19924;-82
2022/10/06 06:09:10;;;;;;;;;;;12.20;83.30;;;;;;5042544;28;19921;-81
2022/10/06 06:11:36;;;;;;;;;;;12.10;83.40;;;;;;5053036;28;20283;-81
2022/10/06 06:14:03;;;;;;;;;;;12.10;83.60;;;;;;5047386;28;20105;-82
2022/10/06 06:16:32;;;;;;;;;;;12.10;83.30;;;;;;5049627;28;20282;-82
2022/10/06 06:18:58;;;;;;;;;;;12.10;83.30;;;;;;5045415;28;20015;-82
2022/10/06 06:21:24;;;;;;;;;;;12.10;83.40;;;;;;5048340;28;20006;-82
2022/10/06 06:23:50;;;;;;;;;;;12.20;83.10;;;;;;5065557;28;19913;-82
2022/10/06 06:26:17;;;;;;;;;;;12.20;83.20;;;;;;5048792;28;19924;-82
2022/10/06 06:28:45;;;;;;;;;;;12.20;83.10;;;;;;5070970;28;19989;-82
2022/10/06 06:31:11;;;;;;;;;;;12.10;82.90;;;;;;5072798;28;19966;-81
2022/10/06 06:33:38;;;;;;;;;;;12.30;82.60;;;;;;5046559;28;19920;-81
2022/10/06 06:36:12;;;;;;;;;;;12.30;82.80;;;;;;5043633;28;19920;-82
2022/10/06 06:38:38;;;;;;;;;;;12.30;82.80;;;;;;5055721;28;19917;-82
2022/10/06 06:41:03;;;;;;;;;;;12.20;82.20;;;;;;5050783;28;19920;-82
2022/10/06 06:43:29;;;;;;;;;;;12.30;82.60;;;;;;5048074;28;19941;-82
2022/10/06 06:46:01;;;;;;;;;;;12.20;82.40;;;;;;5049737;28;19921;-82
2022/10/06 06:48:27;;;;;;;;;;;12.20;82.60;;;;;;5048073;28;20132;-82
2022/10/06 06:50:57;;;;;;;;;;;12.20;82.30;;;;;;5050645;28;19963;-81
2022/10/06 06:53:22;;;;;;;;;;;12.30;82.20;;;;;;5047143;28;19920;-81
2022/10/06 06:55:49;;;;;;;;;;;12.30;81.80;;;;;;5049559;28;19913;-82
2022/10/06 06:58:15;;;;;;;;;;;12.30;81.80;;;;;;5048906;28;19913;-82
2022/10/06 07:00:41;;;;;;;;;;;12.40;82.00;;;;;;5046921;28;19924;-82
2022/10/06 07:03:10;;;;;;;;;;;12.50;81.70;;;;;;5052707;28;19917;-82
2022/10/06 07:05:35;;;;;;;;;;;12.50;81.30;;;;;;5069279;28;19983;-82
2022/10/06 07:08:01;;;;;;;;;;;12.50;81.30;;;;;;5074483;28;19913;-82
2022/10/06 07:10:26;;;;;;;;;;;12.50;81.10;;;;;;5062098;28;19917;-82
2022/10/06 07:12:52;;;;;;;;;;;12.50;81.70;;;;;;5070212;28;19944;-82
2022/10/06 07:26:14;;;;;;;;;;;12.60;80.60;;;;;;5046894;28;20429;-80
2022/10/06 07:28:41;;;;;;;;;;;12.60;80.40;;;;;;5050036;28;19918;-80
2022/10/06 07:31:06;;;;;;;;;;;12.60;80.40;;;;;;5047016;28;19916;-80
2022/10/06 07:33:32;;;;;;;;;;;12.80;79.70;;;;;;5046631;28;19916;-80
2022/10/06 07:35:57;;;;;;;;;;;12.90;79.40;;;;;;5049775;28;19917;-80
2022/10/06 07:38:24;;;;;;;;;;;12.80;79.00;;;;;;5071394;28;19921;-80
2022/10/06 07:40:54;;;;;;;;;;;12.90;79.00;;;;;;5044968;28;20375;-80
2022/10/06 07:43:19;;;;;;;;;;;12.90;79.30;;;;;;5045918;28;19912;-80
2022/10/06 07:45:45;;;;;;;;;;;13.00;79.10;;;;;;5036983;28;19992;-80
2022/10/06 07:48:16;;;;;;;;;;;13.00;78.90;;;;;;5044969;28;19949;-80
2022/10/06 07:50:43;;;;;;;;;;;13.00;78.90;;;;;;5045681;28;20375;-80
2022/10/06 07:53:08;;;;;;;;;;;13.20;78.20;;;;;;5044278;28;19913;-80
2022/10/06 07:55:38;;;;;;;;;;;13.10;77.50;;;;;;5043111;28;20008;-80
2022/10/06 07:58:11;;;;;;;;;;;13.20;77.70;;;;;;5054467;28;20046;-80
2022/10/06 08:00:36;;;;;;;;;;;13.10;77.70;;;;;;5053673;28;19944;-80
2022/10/06 08:03:02;;;;;;;;;;;13.20;77.70;;;;;;5051082;28;19971;-80
2022/10/06 08:05:27;;;;;;;;;;;13.20;77.60;;;;;;5040825;28;19920;-80
2022/10/06 08:07:53;;;;;;;;;;;13.30;77.20;;;;;;5040994;28;19910;-80
2022/10/06 08:10:19;;;;;;;;;;;13.30;77.60;;;;;;5039353;28;19967;-80
2022/10/06 08:12:45;;;;;;;;;;;13.40;77.30;;;;;;5060222;28;20023;-80
2022/10/06 08:15:11;;;;;;;;;;;13.50;76.70;;;;;;5044235;28;20040;-80
2022/10/06 08:17:37;;;;;;;;;;;13.40;76.70;;;;;;5040845;28;19944;-80
2022/10/06 08:20:04;;;;;;;;;;;13.40;77.00;;;;;;5042037;28;19964;-80
2022/10/06 08:22:29;;;;;;;;;;;13.40;77.10;;;;;;5034427;28;19917;-80
2022/10/06 08:24:56;;;;;;;;;;;13.50;76.70;;;;;;5046166;28;20279;-80
2022/10/06 08:27:23;;;;;;;;;;;13.60;77.20;;;;;;5041718;28;19951;-80
2022/10/06 08:29:48;;;;;;;;;;;13.60;76.40;;;;;;5052129;28;19909;-80
2022/10/06 08:32:14;;;;;;;;;;;13.70;76.30;;;;;;5053716;28;19976;-80
2022/10/06 08:34:40;;;;;;;;;;;13.60;75.80;;;;;;5057105;28;19913;-80
2022/10/06 08:37:05;;;;;;;;;;;13.60;76.20;;;;;;5058355;28;19909;-80
2022/10/06 08:39:31;;;;;;;;;;;13.80;76.30;;;;;;5055474;28;20326;-80
2022/10/06 08:41:56;;;;;;;;;;;13.90;76.10;;;;;;5056119;28;20413;-80
2022/10/06 08:44:29;;;;;;;;;;;14.00;75.30;;;;;;5057748;28;20452;-80
2022/10/06 08:46:59;;;;;;;;;;;13.90;75.20;;;;;;5055691;28;20417;-80
2022/10/06 08:49:26;;;;;;;;;;;14.00;74.40;;;;;;5045607;28;19936;-80
2022/10/06 08:51:58;;;;;;;;;;;14.00;74.80;;;;;;5049406;28;19916;-80
2022/10/06 08:54:28;;;;;;;;;;;14.00;74.70;;;;;;5057122;28;19909;-80
2022/10/06 08:57:09;;;;;;;;;;;14.10;74.30;;;;;;5051010;28;19917;-80
2022/10/06 08:59:35;;;;;;;;;;;14.10;74.60;;;;;;5036642;28;19931;-80
2022/10/06 09:02:04;;;;;;;;;;;14.10;74.70;;;;;;5056510;28;19912;-80
2022/10/06 09:04:30;;;;;;;;;;;14.20;74.50;;;;;;5058662;28;20003;-80
2022/10/06 09:07:02;;;;;;;;;;;14.20;73.80;;;;;;5058266;28;20057;-80
2022/10/06 09:09:37;;;;;;;;;;;14.20;73.40;;;;;;5057520;28;20398;-80
2022/10/06 09:12:15;;;;;;;;;;;14.20;74.10;;;;;;5061012;28;19940;-80
2022/10/06 09:14:47;;;;;;;;;;;14.30;72.50;;;;;;5058604;28;19978;-80
2022/10/06 09:17:16;;;;;;;;;;;14.40;72.80;;;;;;5058337;28;20007;-80
2022/10/06 09:19:44;;;;;;;;;;;14.40;73.40;;;;;;5058409;28;19909;-80
2022/10/06 09:22:18;;;;;;;;;;;14.50;73.40;;;;;;5058032;28;19959;-80
2022/10/06 09:24:48;;;;;;;;;;;14.50;72.90;;;;;;5057027;28;19908;-81
2022/10/06 09:27:22;;;;;;;;;;;14.60;72.80;;;;;;5047281;28;19955;-80
2022/10/06 09:29:47;;;;;;;;;;;14.60;72.40;;;;;;5049707;28;20220;-80
2022/10/06 09:32:14;;;;;;;;;;;14.60;72.10;;;;;;5048023;28;19913;-80
2022/10/06 09:34:40;;;;;;;;;;;14.70;71.70;;;;;;5050198;28;20340;-80
2022/10/06 09:37:09;;;;;;;;;;;14.80;71.00;;;;;;5046701;28;19978;-80
2022/10/06 09:39:39;;;;;;;;;;;14.90;71.10;;;;;;5043354;28;19921;-81
2022/10/06 09:42:10;;;;;;;;;;;14.80;71.20;;;;;;5048348;28;19912;-82
2022/10/06 09:44:43;;;;;;;;;;;14.90;70.90;;;;;;5046091;28;19913;-80
2022/10/06 09:47:27;;;;;;;;;;;14.90;70.40;;;;;;5049992;28;19924;-80
2022/10/06 09:50:10;;;;;;;;;;;15.00;69.40;;;;;;5044925;28;19913;-80
2022/10/06 09:52:36;;;;;;;;;;;15.10;69.10;;;;;;5046983;28;19925;-80
2022/10/06 09:55:12;;;;;;;;;;;15.20;69.00;;;;;;5044623;28;19913;-80
2022/10/06 09:57:46;;;;;;;;;;;15.30;68.60;;;;;;5046512;28;20377;-79
2022/10/06 10:00:28;;;;;;;;;;;15.50;67.90;;;;;;5048290;28;20000;-81
2022/10/06 10:02:58;;;;;;;;;;;15.50;67.50;;;;;;5043601;28;19913;-81
2022/10/06 10:05:25;;;;;;;;;;;15.50;67.30;;;;;;5041523;28;20045;-80
2022/10/06 10:08:17;;;;;;;;;;;15.60;67.00;;;;;;5042056;28;20386;-80
2022/10/06 10:10:42;;;;;;;;;;;15.60;66.50;;;;;;5049056;28;19920;-80
2022/10/06 10:13:17;;;;;;;;;;;15.60;67.50;;;;;;5065914;28;19967;-80
2022/10/06 10:15:53;;;;;;;;;;;15.50;66.90;;;;;;5066241;28;19909;-81
2022/10/06 10:18:25;;;;;;;;;;;15.60;67.00;;;;;;5046347;28;19975;-81
2022/10/06 10:20:58;;;;;;;;;;;15.60;66.70;;;;;;5050767;28;19972;-81
2022/10/06 10:23:25;;;;;;;;;;;15.80;66.40;;;;;;5048362;28;20000;-81
2022/10/06 10:26:00;;;;;;;;;;;15.70;65.90;;;;;;5045110;28;19967;-81
2022/10/06 10:28:49;;;;;;;;;;;15.60;65.10;;;;;;5043681;28;19956;-80
2022/10/06 10:31:19;;;;;;;;;;;15.70;64.80;;;;;;5046073;28;19963;-81
2022/10/06 10:33:52;;;;;;;;;;;15.60;62.10;;;;;;5054320;28;19909;-81
2022/10/06 10:36:18;;;;;;;;;;;15.50;62.30;;;;;;5056428;28;19979;-81
2022/10/06 10:38:45;;;;;;;;;;;15.60;61.80;;;;;;5053857;28;19912;-81
2022/10/06 10:41:10;;;;;;;;;;;15.60;61.50;;;;;;5040737;28;19966;-80
2022/10/06 10:43:45;;;;;;;;;;;15.70;60.60;;;;;;5043998;28;19917;-80
2022/10/06 10:46:17;;;;;;;;;;;15.70;59.40;;;;;;5048435;22;19944;-80
2022/10/06 10:48:51;;;;;;;;;;;15.80;60.00;;;;;;5026213;28;19913;-81
2022/10/06 10:51:23;;;;;;;;;;;15.80;59.90;;;;;;5029746;28;19920;-80
2022/10/06 10:53:51;;;;;;;;;;;15.70;59.40;;;;;;5025323;28;19932;-82
2022/10/06 10:56:18;;;;;;;;;;;15.70;58.70;;;;;;5026330;28;19936;-82
2022/10/06 10:58:46;;;;;;;;;;;15.70;58.80;;;;;;5022013;28;19917;-83
2022/10/06 11:01:24;;;;;;;;;;;15.60;61.10;;;;;;5025281;28;20249;-83
2022/10/06 11:03:56;;;;;;;;;;;15.70;59.00;;;;;;5023917;28;19921;-82
2022/10/06 11:06:36;;;;;;;;;;;15.90;58.40;;;;;;5023494;28;20424;-83
2022/10/06 11:09:05;;;;;;;;;;;16.00;59.40;;;;;;5019997;28;20023;-82
2022/10/06 11:11:30;;;;;;;;;;;16.20;59.30;;;;;;5020595;28;19913;-82
2022/10/06 11:13:58;;;;;;;;;;;16.50;59.60;;;;;;5023277;28;19919;-82
2022/10/06 11:16:36;;;;;;;;;;;16.40;59.50;;;;;;5022661;28;19923;-82
2022/10/06 11:19:13;;;;;;;;;;;16.50;59.60;;;;;;5023746;28;20270;-82
2022/10/06 11:21:58;;;;;;;;;;;16.50;60.10;;;;;;5021674;28;19949;-81
2022/10/06 11:24:34;;;;;;;;;;;16.30;59.30;;;;;;5021242;28;19974;-83
2022/10/06 11:27:08;;;;;;;;;;;16.30;59.50;;;;;;5029256;28;19985;-80
2022/10/06 11:29:34;;;;;;;;;;;16.40;60.10;;;;;;5024226;28;19964;-80
2022/10/06 11:32:02;;;;;;;;;;;16.50;59.70;;;;;;5039371;28;20339;-82
2022/10/06 11:34:27;;;;;;;;;;;16.50;58.30;;;;;;5043720;28;20363;-83
2022/10/06 11:37:17;;;;;;;;;;;16.60;58.70;;;;;;5045226;28;20027;-81
2022/10/06 11:40:01;;;;;;;;;;;16.50;58.80;;;;;;5038060;28;19921;-81
2022/10/06 11:42:37;;;;;;;;;;;16.50;58.50;;;;;;5037880;28;19909;-83
2022/10/06 11:45:04;;;;;;;;;;;16.60;58.30;;;;;;5029984;28;19920;-80
2022/10/06 11:47:32;;;;;;;;;;;16.60;57.80;;;;;;5027316;28;19913;-81
2022/10/06 11:49:58;;;;;;;;;;;16.80;57.70;;;;;;5038599;28;19916;-82
2022/10/06 11:52:23;;;;;;;;;;;16.70;57.80;;;;;;5039324;28;19913;-84
2022/10/06 11:54:53;;;;;;;;;;;16.60;58.50;;;;;;5039291;28;19910;-81
2022/10/06 11:57:22;;;;;;;;;;;16.50;58.40;;;;;;5036581;28;19924;-81
2022/10/06 12:00:06;;;;;;;;;;;16.50;59.20;;;;;;5033842;28;19930;-81
2022/10/06 12:02:31;;;;;;;;;;;16.40;57.70;;;;;;5032848;28;19981;-81
2022/10/06 12:05:09;;;;;;;;;;;16.50;58.40;;;;;;5032979;28;19941;-82
2022/10/06 12:07:53;;;;;;;;;;;16.50;58.50;;;;;;5044085;28;19925;-83
2022/10/06 12:10:27;;;;;;;;;;;16.50;58.10;;;;;;5034909;28;20004;-82
2022/10/06 12:13:13;;;;;;;;;;;16.60;57.20;;;;;;5015195;28;19917;-81
2022/10/06 12:15:49;;;;;;;;;;;16.70;56.90;;;;;;5028715;28;20012;-82
2022/10/06 12:18:22;;;;;;;;;;;16.90;55.70;;;;;;5030706;28;19913;-81
2022/10/06 12:21:00;;;;;;;;;;;17.00;56.10;;;;;;5028932;28;19927;-81
2022/10/06 12:23:44;;;;;;;;;;;17.00;56.00;;;;;;5031198;28;19913;-82
2022/10/06 12:26:22;;;;;;;;;;;16.80;55.90;;;;;;5029875;28;19924;-80
2022/10/06 12:29:06;;;;;;;;;;;16.80;56.10;;;;;;5029343;28;19913;-82
2022/10/06 12:31:38;;;;;;;;;;;16.80;55.80;;;;;;5031981;28;19992;-82
2022/10/06 12:34:23;;;;;;;;;;;16.70;56.10;;;;;;5030580;28;19913;-84
2022/10/06 12:36:49;;;;;;;;;;;16.80;55.40;;;;;;5030338;28;19913;-83
2022/10/06 12:39:22;;;;;;;;;;;16.70;55.70;;;;;;5031375;28;19909;-82
2022/10/06 12:42:01;;;;;;;;;;;16.60;57.00;;;;;;5030672;28;19913;-81
2022/10/06 12:44:41;;;;;;;;;;;16.60;56.90;;;;;;5030972;28;19916;-83
2022/10/06 12:47:15;;;;;;;;;;;16.60;55.90;;;;;;5028177;28;19928;-82
2022/10/06 12:49:58;;;;;;;;;;;16.60;55.30;;;;;;5027609;28;21238;-83
2022/10/06 12:52:37;;;;;;;;;;;16.70;54.00;;;;;;5030602;28;19917;-83
2022/10/06 12:55:17;;;;;;;;;;;16.70;55.00;;;;;;5022635;28;19936;-82
2022/10/06 12:57:44;;;;;;;;;;;16.70;55.10;;;;;;5031426;28;19909;-82
2022/10/06 13:00:28;;;;;;;;;;;16.70;55.30;;;;;;5028443;28;20000;-83
2022/10/06 13:02:54;;;;;;;;;;;16.60;53.90;;;;;;5029455;28;20285;-82
2022/10/06 13:05:21;;;;;;;;;;;16.70;53.60;;;;;;5034226;28;19917;-82
2022/10/06 13:08:00;;;;;;;;;;;16.80;53.50;;;;;;5030181;28;19913;-83
2022/10/06 13:10:26;;;;;;;;;;;16.80;53.10;;;;;;5030932;28;19913;-84
2022/10/06 13:12:51;;;;;;;;;;;16.80;52.80;;;;;;5023768;28;19917;-82
2022/10/06 13:15:22;;;;;;;;;;;16.70;53.30;;;;;;5022377;28;20016;-83
2022/10/06 13:17:55;;;;;;;;;;;16.60;53.40;;;;;;5018992;28;19913;-82
2022/10/06 13:20:23;;;;;;;;;;;16.60;53.20;;;;;;5019969;28;19913;-83
2022/10/06 13:23:03;;;;;;;;;;;16.60;53.10;;;;;;5026447;28;19966;-82
2022/10/06 13:25:43;;;;;;;;;;;16.50;53.00;;;;;;5034251;28;19932;-82
2022/10/06 13:28:22;;;;;;;;;;;16.50;53.30;;;;;;5024153;28;20017;-83
2022/10/06 13:30:48;;;;;;;;;;;16.50;52.20;;;;;;5025424;28;20003;-82
2022/10/06 13:33:14;;;;;;;;;;;16.50;53.30;;;;;;5044304;28;20356;-82
2022/10/06 13:35:39;;;;;;;;;;;16.50;54.30;;;;;;5030225;28;20000;-83
2022/10/06 13:38:05;;;;;;;;;;;16.60;54.40;;;;;;5028085;28;19913;-82
2022/10/06 13:40:32;;;;;;;;;;;16.80;53.90;;;;;;5030310;28;19913;-82
2022/10/06 13:42:59;;;;;;;;;;;16.70;54.70;;;;;;5028679;28;19914;-82
2022/10/06 13:45:25;;;;;;;;;;;16.80;53.50;;;;;;5038014;28;19930;-82
2022/10/06 13:48:14;;;;;;;;;;;16.60;54.60;;;;;;5026314;28;19924;-82
2022/10/06 13:50:44;;;;;;;;;;;16.70;53.50;;;;;;5004132;28;19917;-82
2022/10/06 13:53:22;;;;;;;;;;;16.70;51.90;;;;;;5030548;28;19957;-83
2022/10/06 13:55:49;;;;;;;;;;;16.70;52.10;;;;;;5025431;28;19928;-83
2022/10/06 13:58:18;;;;;;;;;;;16.70;52.70;;;;;;5027358;28;19960;-83
2022/10/06 14:00:59;;;;;;;;;;;16.70;52.80;;;;;;5028945;28;19989;-82
2022/10/06 14:03:26;;;;;;;;;;;16.80;53.30;;;;;;5031141;28;19991;-82
2022/10/06 14:06:04;;;;;;;;;;;16.80;52.40;;;;;;5029809;28;20713;-82
2022/10/06 14:08:30;;;;;;;;;;;16.80;53.20;;;;;;5030371;28;19932;-81
2022/10/06 14:10:57;;;;;;;;;;;16.80;53.80;;;;;;5032321;28;20392;-81
2022/10/06 14:13:27;;;;;;;;;;;16.70;54.00;;;;;;5029288;28;19924;-80
2022/10/06 14:15:55;;;;;;;;;;;16.70;54.20;;;;;;5025198;28;19947;-82
2022/10/06 14:18:22;;;;;;;;;;;16.80;54.30;;;;;;5033535;28;20039;-81
2022/10/06 14:20:48;;;;;;;;;;;16.80;54.60;;;;;;5039388;28;19967;-82
2022/10/06 14:23:32;;;;;;;;;;;16.80;54.30;;;;;;5040136;28;19924;-84
2022/10/06 14:25:58;;;;;;;;;;;16.90;54.10;;;;;;5056667;28;20297;-84
2022/10/06 14:28:23;;;;;;;;;;;16.80;53.30;;;;;;5039945;28;19913;-82
2022/10/06 14:30:49;;;;;;;;;;;16.80;53.10;;;;;;5034799;28;19910;-81
2022/10/06 14:33:15;;;;;;;;;;;16.70;52.40;;;;;;5044330;28;19920;-81
2022/10/06 14:35:42;;;;;;;;;;;16.60;52.10;;;;;;5042390;28;19909;-80
2022/10/06 14:38:08;;;;;;;;;;;16.60;53.30;;;;;;5053847;28;19913;-81